Emsdale, Canada
Current Conditions -  °F | °C
As of 8:00 PM on Tuesday 21 Oct 2014 (Local Time) from CYQA Reporting Station
Overcast Overcast  
Wind Chill: 37°   Ceiling: 2600
Heat Index: 41°   Visibility: 9mi
Dew Point: 36°   Wind: 6mph
Humidity: 81%   Direction: 360°N
Pressure: 30.15"   Gusts: NA
Location:  45.53°N, 79.32°W
Report Text: CYQA 220000Z AUTO 36005KT 330V070 9SM OVC026 05/02 A3015 RMK SLP219
Loading
Personal Weather Stations






























Interactive Weather Map
Tropical Storm Tracking
New forecast layout! Learn more

10-Day Weather Forecast

Advertisements
Track Severe Weather on mobile